Time;durP1;ratioP1;P1;durP2;ratioP2;P2;SDS_P1;SDS_P2;PMS_P1;PMS_P2;Temp;Humidity;BMP_temperature;BMP_pressure;BME280_temperature;BME280_humidity;BME280_pressure;Samples;Min_cycle;Max_cycle;Signal;HPM_P1;HPM_P2
2021/10/07 00:00:12;;;;;;;80.57;51.07;;;;;;;11.06;100.00;99724.06;2116052;28;20296;-78
2021/10/07 00:01:13;;;;;;;79.18;49.75;;;;;;;11.07;100.00;99728.34;2116706;28;20287;-78
2021/10/07 00:02:15;;;;;;;77.43;49.17;;;;;;;11.07;100.00;99719.53;2116154;27;20655;-78
2021/10/07 00:03:17;;;;;;;77.82;50.47;;;;;;;11.05;100.00;99727.81;2115985;28;20185;-78
2021/10/07 00:04:20;;;;;;;87.68;49.08;;;;;;;11.07;100.00;99730.22;2116767;28;20192;-78
2021/10/07 00:05:21;;;;;;;84.60;51.00;;;;;;;11.07;100.00;99725.66;2116120;27;20205;-78
2021/10/07 00:06:22;;;;;;;78.75;48.67;;;;;;;11.07;100.00;99728.34;2107771;28;20214;-78
2021/10/07 00:07:24;;;;;;;81.97;49.37;;;;;;;11.08;100.00;99726.47;2115920;28;20241;-78
2021/10/07 00:08:25;;;;;;;74.85;50.15;;;;;;;11.08;100.00;99727.25;2116519;28;20200;-78
2021/10/07 00:09:28;;;;;;;83.40;49.67;;;;;;;11.09;100.00;99723.50;2116343;28;20188;-78
2021/10/07 00:10:31;;;;;;;80.22;50.08;;;;;;;11.10;100.00;99730.44;2116639;28;20173;-78
2021/10/07 00:11:33;;;;;;;79.03;49.15;;;;;;;11.09;100.00;99720.84;2115841;28;20276;-78
2021/10/07 00:12:33;;;;;;;72.40;48.10;;;;;;;11.10;100.00;99716.28;2115785;28;20200;-78
2021/10/07 00:13:35;;;;;;;71.53;47.73;;;;;;;11.09;100.00;99723.50;2115893;28;20181;-78
2021/10/07 00:14:37;;;;;;;77.72;48.03;;;;;;;11.09;100.00;99718.16;2115762;28;20193;-78
2021/10/07 00:15:38;;;;;;;75.40;47.83;;;;;;;11.11;100.00;99720.53;2115753;28;20197;-78
2021/10/07 00:16:40;;;;;;;72.03;47.67;;;;;;;11.13;100.00;99734.44;2115929;28;20185;-78
2021/10/07 00:17:41;;;;;;;80.38;48.83;;;;;;;11.11;100.00;99720.53;2115749;28;20499;-78
2021/10/07 00:18:43;;;;;;;78.43;47.55;;;;;;;11.11;100.00;99720.53;2115968;28;20189;-78
2021/10/07 00:19:44;;;;;;;76.65;47.05;;;;;;;11.11;100.00;99726.69;2116416;28;20272;-78
2021/10/07 00:20:45;;;;;;;73.97;48.50;;;;;;;11.08;100.00;99721.91;2116662;28;20196;-78
2021/10/07 00:21:46;;;;;;;75.00;47.53;;;;;;;11.10;100.00;99721.63;2115749;28;20589;-78
2021/10/07 00:22:48;;;;;;;74.77;47.47;;;;;;;11.11;100.00;99726.69;2115940;28;20254;-78
2021/10/07 00:24:04;;;;;;;70.07;46.25;;;;;;;11.15;100.00;99722.38;2115646;28;20200;-78
2021/10/07 00:25:10;;;;;;;76.85;46.67;;;;;;;11.16;100.00;99725.84;2116229;28;20594;-78
2021/10/07 00:26:11;;;;;;;76.18;46.50;;;;;;;11.15;100.00;99725.06;2115637;28;20188;-78
2021/10/07 00:27:12;;;;;;;70.83;46.90;;;;;;;11.14;100.00;99726.13;2115835;28;20216;-78
2021/10/07 00:28:13;;;;;;;69.43;47.22;;;;;;;11.13;100.00;99719.22;2115657;28;20552;-78
2021/10/07 00:30:36;;;;;;;69.70;45.20;;;;;;;11.14;100.00;99723.47;2099282;28;20252;-78
2021/10/07 00:31:40;;;;;;;65.35;45.13;;;;;;;11.13;100.00;99724.53;2107343;28;20288;-78
2021/10/07 00:32:48;;;;;;;67.18;45.80;;;;;;;11.15;100.00;99724.25;2115525;28;20663;-78
2021/10/07 00:34:02;;;;;;;63.63;45.35;;;;;;;11.13;100.00;99718.41;2115732;28;20620;-78
2021/10/07 00:35:15;;;;;;;67.70;45.30;;;;;;;11.13;100.00;99718.41;2115563;28;20184;-78
2021/10/07 00:36:26;;;;;;;64.35;43.78;;;;;;;11.10;100.00;99719.75;2109059;28;20221;-78
2021/10/07 00:39:02;;;;;;;63.53;44.90;;;;;;;11.14;100.00;99720.00;2115828;28;20173;-78
2021/10/07 00:39:04;;;;;;;60.60;42.72;;;;;;;11.13;100.00;99721.88;2115299;28;20670;-78
2021/10/07 00:40:09;;;;;;;64.70;44.33;;;;;;;11.12;100.00;99722.13;2115871;28;20175;-78
2021/10/07 00:41:11;;;;;;;69.15;44.08;;;;;;;11.11;100.00;99724.00;2115514;28;20196;-78
2021/10/07 00:42:12;;;;;;;68.90;46.78;;;;;;;11.11;100.00;99724.00;2107042;28;20238;-79
2021/10/07 00:43:13;;;;;;;66.72;45.80;;;;;;;11.10;100.00;99718.97;2115453;28;20197;-78
2021/10/07 00:44:14;;;;;;;64.72;45.63;;;;;;;11.09;100.00;99718.16;2115622;28;20188;-78
2021/10/07 00:45:19;;;;;;;74.27;46.47;;;;;;;11.12;100.00;99720.28;2115711;27;20204;-78
2021/10/07 00:46:20;;;;;;;69.50;46.00;;;;;;;11.12;100.00;99722.97;2107655;28;20205;-78
2021/10/07 00:47:22;;;;;;;67.10;45.55;;;;;;;11.09;100.00;99717.38;2107330;28;20197;-78
2021/10/07 00:48:23;;;;;;;75.82;47.30;;;;;;;11.14;100.00;99720.78;2115531;28;20197;-78
2021/10/07 00:49:25;;;;;;;73.38;46.20;;;;;;;11.16;100.00;99721.28;2116184;28;20185;-78
2021/10/07 00:50:26;;;;;;;74.40;47.35;;;;;;;11.12;100.00;99722.97;2115668;27;20200;-78
2021/10/07 00:51:29;;;;;;;75.07;48.87;;;;;;;11.19;100.00;99723.38;2115721;28;20675;-78
2021/10/07 00:52:29;;;;;;;71.70;47.35;;;;;;;11.16;100.00;99723.19;2116292;28;20223;-78
2021/10/07 00:53:31;;;;;;;70.63;47.50;;;;;;;11.11;100.00;99721.34;2115367;28;20193;-78
2021/10/07 00:54:32;;;;;;;73.10;46.55;;;;;;;11.15;100.00;99722.38;2106925;28;20201;-78
2021/10/07 00:55:36;;;;;;;73.00;47.70;;;;;;;11.26;100.00;99723.84;2107181;28;20698;-78
2021/10/07 00:56:37;;;;;;;69.97;48.35;;;;;;;11.25;100.00;99721.47;2107083;28;20215;-78
2021/10/07 00:57:39;;;;;;;68.83;47.83;;;;;;;11.20;100.00;99724.19;2107360;28;20219;-78
2021/10/07 00:58:40;;;;;;;70.97;49.05;;;;;;;11.17;100.00;99724.75;2115468;28;20837;-78
2021/10/07 00:59:43;;;;;;;73.80;49.57;;;;;;;11.10;100.00;99721.63;2115312;28;20189;-78
2021/10/07 01:00:47;;;;;;;75.55;48.53;;;;;;;11.06;100.00;99723.28;2115607;28;20165;-78
2021/10/07 01:01:49;;;;;;;77.50;50.27;;;;;;;11.00;100.00;99720.66;2115603;27;20300;-78
2021/10/07 01:02:50;;;;;;;79.47;50.22;;;;;;;11.00;100.00;99720.66;2106988;28;20573;-78
2021/10/07 01:03:51;;;;;;;83.23;51.23;;;;;;;10.99;100.00;99724.41;2106806;28;20190;-78
2021/10/07 01:04:53;;;;;;;80.53;51.90;;;;;;;10.96;100.00;99718.84;2115414;28;20559;-78
2021/10/07 01:05:56;;;;;;;80.25;50.40;;;;;;;10.96;100.00;99718.84;2115237;28;20662;-78
2021/10/07 01:06:59;;;;;;;80.03;51.05;;;;;;;10.95;100.00;99726.06;2115334;28;20220;-78
2021/10/07 01:08:00;;;;;;;85.53;50.90;;;;;;;10.96;100.00;99729.53;2115248;28;20305;-78
2021/10/07 01:09:03;;;;;;;83.43;52.90;;;;;;;10.96;100.00;99724.19;2106774;28;20662;-78
2021/10/07 01:10:05;;;;;;;88.25;51.05;;;;;;;10.94;100.00;99724.44;2115052;28;20279;-78
2021/10/07 01:11:08;;;;;;;84.00;51.00;;;;;;;10.94;100.00;99724.44;2115552;28;20196;-78
2021/10/07 01:12:09;;;;;;;84.00;53.20;;;;;;;10.92;100.00;99721.25;2115506;27;20208;-78
2021/10/07 01:13:12;;;;;;;85.32;51.65;;;;;;;10.94;100.00;99720.97;2106810;28;20217;-78
2021/10/07 01:14:17;;;;;;;86.13;52.97;;;;;;;10.92;100.00;99717.78;2107308;28;20770;-78
2021/10/07 01:15:19;;;;;;;92.32;53.45;;;;;;;10.94;100.00;99731.66;2107375;28;20217;-78
2021/10/07 01:16:20;;;;;;;93.40;54.45;;;;;;;10.94;100.00;99731.66;2106849;28;20205;-78
2021/10/07 01:17:23;;;;;;;90.40;52.47;;;;;;;10.94;100.00;99726.31;2106866;28;20686;-78
2021/10/07 01:18:23;;;;;;;91.47;54.80;;;;;;;10.93;100.00;99728.19;2115653;28;20193;-78
2021/10/07 01:19:27;;;;;;;94.30;53.83;;;;;;;10.92;100.00;99723.94;2115327;28;20224;-78
2021/10/07 01:20:30;;;;;;;85.03;52.28;;;;;;;10.93;100.00;99735.41;2115577;28;20573;-78
2021/10/07 01:21:33;;;;;;;95.35;54.33;;;;;;;10.95;100.00;99725.25;2115239;28;20277;-78
2021/10/07 01:22:35;;;;;;;93.72;53.53;;;;;;;10.94;100.00;99732.44;2107195;28;20566;-78
2021/10/07 01:23:36;;;;;;;106.50;56.15;;;;;;;10.92;100.00;99731.94;2106790;28;20201;-78
2021/10/07 01:24:38;;;;;;;91.00;54.07;;;;;;;10.91;100.00;99725.00;2107096;28;20193;-78
2021/10/07 01:25:38;;;;;;;92.78;54.75;;;;;;;10.90;100.00;99731.44;2115333;28;20192;-78
2021/10/07 01:26:41;;;;;;;89.97;53.80;;;;;;;10.91;100.00;99732.22;2115875;28;20208;-78
2021/10/07 01:27:43;;;;;;;95.38;55.58;;;;;;;10.94;100.00;99737.00;2115557;27;20201;-78
2021/10/07 01:28:47;;;;;;;99.20;56.42;;;;;;;10.94;100.00;99734.31;2115234;28;20224;-78
2021/10/07 01:29:52;;;;;;;98.13;56.17;;;;;;;10.93;100.00;99733.53;2107223;28;20193;-78
2021/10/07 01:30:53;;;;;;;95.75;55.80;;;;;;;10.96;100.00;99735.66;2115309;28;20272;-78
2021/10/07 01:31:56;;;;;;;99.80;55.70;;;;;;;10.96;100.00;99738.31;2115869;28;20193;-78
2021/10/07 01:32:57;;;;;;;90.85;54.67;;;;;;;10.97;100.00;99737.25;2115131;28;20197;-78
2021/10/07 01:33:59;;;;;;;88.07;55.38;;;;;;;10.97;100.00;99739.13;2106804;28;20193;-78
2021/10/07 01:35:01;;;;;;;93.50;55.17;;;;;;;10.97;100.00;99733.78;2106805;28;20198;-78
2021/10/07 01:36:07;;;;;;;106.45;58.55;;;;;;;10.97;100.00;99733.78;2115381;28;20196;-78
2021/10/07 01:37:08;;;;;;;97.72;54.45;;;;;;;11.00;100.00;99738.56;2115526;27;20200;-78
2021/10/07 01:38:09;;;;;;;91.77;54.60;;;;;;;10.99;100.00;99744.97;2106693;28;20197;-78
2021/10/07 01:39:10;;;;;;;92.32;55.50;;;;;;;10.98;100.00;99738.03;2106737;28;20198;-78
2021/10/07 01:40:12;;;;;;;97.43;55.17;;;;;;;10.99;100.00;99735.09;2115192;28;20280;-78
2021/10/07 01:41:13;;;;;;;100.63;55.90;;;;;;;10.99;100.00;99740.41;2115081;28;20185;-78
2021/10/07 01:42:15;;;;;;;93.50;54.50;;;;;;;11.01;100.00;99742.81;2106971;28;20682;-78
2021/10/07 01:43:18;;;;;;;86.35;53.97;;;;;;;11.02;100.00;99739.06;2106770;28;20201;-78
2021/10/07 01:44:22;;;;;;;91.35;55.25;;;;;;;11.02;100.00;99744.41;2115224;28;20211;-78
2021/10/07 01:45:24;;;;;;;95.10;55.20;;;;;;;11.00;100.00;99742.00;2115769;28;20220;-78
2021/10/07 01:46:25;;;;;;;98.07;54.38;;;;;;;11.01;100.00;99732.13;2115050;28;20193;-78
2021/10/07 01:47:26;;;;;;;90.07;54.80;;;;;;;11.01;100.00;99740.13;2115283;28;20752;-78
2021/10/07 01:48:29;;;;;;;95.25;54.92;;;;;;;11.00;100.00;99743.88;2115069;28;20196;-78
2021/10/07 01:49:30;;;;;;;87.32;53.92;;;;;;;10.98;100.00;99738.03;2115280;28;20199;-78
2021/10/07 01:50:33;;;;;;;90.35;54.30;;;;;;;10.98;100.00;99740.72;2115150;28;20185;-78
2021/10/07 01:51:37;;;;;;;92.80;53.78;;;;;;;11.01;100.00;99742.81;2115724;28;20181;-78
2021/10/07 01:52:39;;;;;;;92.25;53.83;;;;;;;10.99;100.00;99744.97;2115058;28;20587;-78
2021/10/07 01:53:40;;;;;;;88.72;53.97;;;;;;;10.98;100.00;99746.06;2106922;28;20194;-78
2021/10/07 01:54:41;;;;;;;87.78;53.67;;;;;;;10.98;100.00;99748.72;2115116;28;20287;-78
2021/10/07 01:55:43;;;;;;;85.40;53.23;;;;;;;10.97;100.00;99753.25;2114897;28;20591;-78
2021/10/07 01:56:46;;;;;;;92.90;56.25;;;;;;;11.00;100.00;99743.88;2106592;28;20308;-78
2021/10/07 01:57:48;;;;;;;84.65;53.42;;;;;;;10.98;100.00;99740.72;2106808;28;20198;-78
2021/10/07 01:58:49;;;;;;;89.25;53.35;;;;;;;10.97;100.00;99749.81;2106865;28;20213;-78
2021/10/07 01:59:51;;;;;;;87.53;53.67;;;;;;;11.00;100.00;99749.22;2114939;28;20181;-78
2021/10/07 02:00:52;;;;;;;90.70;52.55;;;;;;;10.99;100.00;99744.97;2115819;28;20197;-78
2021/10/07 02:01:54;;;;;;;87.13;53.60;;;;;;;11.01;100.00;99748.94;2114936;28;20196;-78
2021/10/07 02:02:54;;;;;;;82.90;51.95;;;;;;;11.02;100.00;99750.53;2115058;28;20200;-78
2021/10/07 02:03:56;;;;;;;88.70;53.97;;;;;;;11.03;100.00;99748.66;2114944;28;20698;-78
2021/10/07 02:04:58;;;;;;;91.78;53.83;;;;;;;11.02;100.00;99750.53;2106580;28;20208;-78
2021/10/07 02:05:59;;;;;;;87.20;52.13;;;;;;;11.02;100.00;99733.72;2106579;28;20236;-78
2021/10/07 02:07:02;;;;;;;93.70;54.60;;;;;;;11.03;100.00;99735.31;2114811;28;20318;-78
2021/10/07 02:08:03;;;;;;;86.20;52.47;;;;;;;11.01;100.00;99740.94;2115022;28;20195;-78
2021/10/07 02:09:05;;;;;;;89.25;53.95;;;;;;;11.04;100.00;99742.25;2115144;28;20220;-78
2021/10/07 02:10:14;;;;;;;87.30;54.72;;;;;;;11.01;100.00;99748.94;2106352;28;20583;-78
2021/10/07 02:11:18;;;;;;;84.43;52.35;;;;;;;11.00;100.00;99742.00;2108038;28;20284;-78
2021/10/07 02:12:19;;;;;;;84.70;51.53;;;;;;;11.00;100.00;99741.22;2114985;28;20245;-78
2021/10/07 02:13:20;;;;;;;86.87;52.10;;;;;;;11.01;100.00;99738.25;2115819;28;20189;-78
2021/10/07 02:14:22;;;;;;;83.25;50.95;;;;;;;11.00;100.00;99746.56;2114881;28;20197;-78
2021/10/07 02:15:23;;;;;;;85.20;50.03;;;;;;;11.01;100.00;99746.28;2106476;28;20189;-78
2021/10/07 02:16:24;;;;;;;87.32;52.67;;;;;;;11.01;100.00;99745.47;2114976;28;20674;-78
2021/10/07 02:17:29;;;;;;;85.97;52.33;;;;;;;11.03;100.00;99745.97;2114889;28;20635;-78
2021/10/07 02:18:31;;;;;;;85.53;50.72;;;;;;;11.06;100.00;99748.13;2114926;28;20288;-78
2021/10/07 02:19:34;;;;;;;82.22;52.42;;;;;;;11.03;100.00;99745.97;2114807;28;20667;-78
2021/10/07 02:20:35;;;;;;;85.78;51.85;;;;;;;11.03;100.00;99749.47;2106438;28;20201;-78
2021/10/07 02:21:36;;;;;;;84.90;52.27;;;;;;;11.03;100.00;99749.47;2114905;28;20263;-78
2021/10/07 02:22:39;;;;;;;86.80;52.45;;;;;;;11.02;100.00;99753.19;2114796;28;20246;-78
2021/10/07 02:23:40;;;;;;;88.60;53.83;;;;;;;11.02;100.00;99747.06;2106472;28;20251;-78
2021/10/07 02:24:41;;;;;;;84.63;53.28;;;;;;;11.02;100.00;99752.41;2114876;28;20189;-78
2021/10/07 02:25:43;;;;;;;92.83;52.63;;;;;;;11.01;100.00;99754.28;2114816;28;20201;-78
2021/10/07 02:26:44;;;;;;;88.80;52.53;;;;;;;11.03;100.00;99756.66;2106374;28;20197;-78
2021/10/07 02:27:46;;;;;;;88.30;52.83;;;;;;;11.03;100.00;99757.50;2114807;28;20215;-78
2021/10/07 02:28:47;;;;;;;89.70;52.05;;;;;;;11.02;100.00;99755.88;2114952;28;20281;-78
2021/10/07 02:29:48;;;;;;;86.60;52.17;;;;;;;11.03;100.00;99751.31;2106335;28;20232;-78
2021/10/07 02:30:49;;;;;;;91.53;52.45;;;;;;;11.03;100.00;99759.34;2106592;28;20201;-78
2021/10/07 02:31:54;;;;;;;86.80;51.45;;;;;;;11.03;100.00;99757.50;2114870;28;20216;-78
2021/10/07 02:32:56;;;;;;;85.43;51.63;;;;;;;11.04;100.00;99758.28;2114673;28;20253;-78
2021/10/07 02:33:58;;;;;;;94.38;54.10;;;;;;;11.05;100.00;99759.88;2106477;28;20192;-78
2021/10/07 02:34:59;;;;;;;86.63;52.88;;;;;;;11.03;100.00;99757.50;2106410;28;20204;-78
2021/10/07 02:36:01;;;;;;;88.73;52.30;;;;;;;11.06;100.00;99750.00;2106588;28;20259;-78
2021/10/07 02:37:01;;;;;;;91.57;51.53;;;;;;;11.02;100.00;99755.88;2106256;28;20212;-78
2021/10/07 02:38:05;;;;;;;84.10;52.00;;;;;;;11.04;100.00;99752.94;2106318;28;20229;-78
2021/10/07 02:39:07;;;;;;;96.18;54.88;;;;;;;11.04;100.00;99758.28;2106547;28;20192;-78
2021/10/07 02:40:11;;;;;;;95.72;53.58;;;;;;;11.04;100.00;99758.28;2114763;28;20181;-78
2021/10/07 02:41:11;;;;;;;94.35;53.60;;;;;;;11.03;100.00;99751.31;2114671;28;20193;-78
2021/10/07 02:42:13;;;;;;;97.70;55.13;;;;;;;11.03;100.00;99756.66;2114629;28;20690;-78
2021/10/07 02:43:14;;;;;;;81.88;53.00;;;;;;;11.05;100.00;99757.19;2114756;28;20189;-78
2021/10/07 02:44:16;;;;;;;93.60;52.90;;;;;;;11.05;100.00;99754.53;2114675;28;20239;-78
2021/10/07 02:45:17;;;;;;;89.90;54.70;;;;;;;11.06;100.00;99755.31;2114776;28;20187;-78
2021/10/07 02:46:19;;;;;;;93.53;52.75;;;;;;;11.06;100.00;99756.13;2115577;28;20663;-78
2021/10/07 02:47:23;;;;;;;88.30;52.10;;;;;;;11.04;100.00;99759.06;2114640;28;20200;-78
2021/10/07 02:48:25;;;;;;;83.97;53.08;;;;;;;11.05;100.00;99754.53;2106905;28;20198;-78
2021/10/07 02:49:28;;;;;;;85.82;52.85;;;;;;;11.05;100.00;99762.53;2114794;28;20224;-78
2021/10/07 02:50:30;;;;;;;81.03;51.42;;;;;;;11.06;100.00;99764.13;2114670;28;20276;-78
2021/10/07 02:51:32;;;;;;;86.72;52.03;;;;;;;11.06;100.00;99760.66;2106584;28;20711;-78
2021/10/07 02:52:34;;;;;;;82.95;51.38;;;;;;;11.02;100.00;99763.88;2114697;28;20253;-78
2021/10/07 02:53:38;;;;;;;85.63;53.53;;;;;;;11.06;100.00;99763.34;2114736;28;20192;-78
2021/10/07 02:54:39;;;;;;;85.28;53.17;;;;;;;11.08;100.00;99763.84;2115307;28;20245;-78
2021/10/07 02:55:42;;;;;;;84.03;52.08;;;;;;;11.10;100.00;99765.16;2114594;28;20601;-78
2021/10/07 02:56:42;;;;;;;90.28;53.05;;;;;;;11.07;100.00;99757.72;2114680;28;20695;-78
2021/10/07 02:57:46;;;;;;;94.50;53.73;;;;;;;11.09;100.00;99776.13;2114642;28;20685;-78
2021/10/07 02:58:47;;;;;;;90.47;51.78;;;;;;;11.10;100.00;99765.16;2114627;28;20243;-78
2021/10/07 02:59:51;;;;;;;88.88;52.63;;;;;;;11.10;100.00;99767.81;2106295;28;20193;-78
2021/10/07 03:00:53;;;;;;;89.68;53.03;;;;;;;11.10;100.00;99765.16;2114746;28;20623;-78
2021/10/07 03:01:54;;;;;;;91.78;53.60;;;;;;;11.12;100.00;99765.69;2116420;28;20197;-78
2021/10/07 03:02:56;;;;;;;88.80;53.20;;;;;;;11.08;100.00;99759.31;2107915;28;20243;-78
2021/10/07 03:03:57;;;;;;;90.15;51.30;;;;;;;11.08;100.00;99764.63;2107892;28;20666;-78
2021/10/07 03:04:58;;;;;;;93.87;51.53;;;;;;;11.11;100.00;99765.94;2116482;28;20181;-78
2021/10/07 03:05:59;;;;;;;98.95;53.75;;;;;;;11.10;100.00;99767.03;2116553;28;20687;-78
2021/10/07 03:07:05;;;;;;;94.43;52.87;;;;;;;11.12;100.00;99764.88;2116487;28;20604;-78
2021/10/07 03:08:07;;;;;;;93.75;52.50;;;;;;;11.12;100.00;99765.69;2116193;28;20703;-78
2021/10/07 03:09:11;;;;;;;88.80;53.40;;;;;;;11.12;100.00;99770.19;2116598;28;20273;-78
2021/10/07 03:10:12;;;;;;;86.38;52.50;;;;;;;11.11;100.00;99771.28;2116126;28;20686;-78
2021/10/07 03:11:14;;;;;;;89.07;52.10;;;;;;;11.12;100.00;99770.19;2107801;28;20623;-78
2021/10/07 03:12:15;;;;;;;98.88;53.10;;;;;;;11.11;100.00;99771.28;2116415;28;20655;-78
2021/10/07 03:13:17;;;;;;;87.33;51.70;;;;;;;11.10;100.00;99764.34;2117149;27;20571;-78
2021/10/07 03:14:18;;;;;;;92.93;52.72;;;;;;;11.11;100.00;99774.75;2116918;28;20200;-78
2021/10/07 03:15:20;;;;;;;97.25;52.38;;;;;;;11.10;100.00;99777.72;2116265;28;20220;-78
2021/10/07 03:16:21;;;;;;;92.75;54.33;;;;;;;11.09;100.00;99774.25;2107815;28;20617;-78
2021/10/07 03:17:22;;;;;;;91.53;53.37;;;;;;;11.09;100.00;99774.25;2116167;28;20193;-78
2021/10/07 03:18:23;;;;;;;94.57;53.42;;;;;;;11.10;100.00;99773.16;2116301;28;20197;-78
2021/10/07 03:19:26;;;;;;;92.20;52.27;;;;;;;11.12;100.00;99776.38;2116471;27;20224;-78
2021/10/07 03:20:27;;;;;;;96.93;52.20;;;;;;;11.12;100.00;99781.72;2116522;28;20329;-78
2021/10/07 03:21:29;;;;;;;94.20;52.30;;;;;;;11.10;100.00;99778.50;2116062;28;20197;-78
2021/10/07 03:22:29;;;;;;;92.68;53.10;;;;;;;11.13;100.00;99787.84;2116229;28;20189;-78
2021/10/07 03:23:31;;;;;;;91.17;52.63;;;;;;;11.14;100.00;99784.09;2116884;28;20181;-78
2021/10/07 03:24:33;;;;;;;88.00;51.15;;;;;;;11.11;100.00;99779.28;2116829;28;20185;-78
2021/10/07 03:25:35;;;;;;;89.20;51.90;;;;;;;11.12;100.00;99781.72;2116103;28;20279;-78
2021/10/07 03:26:36;;;;;;;87.90;50.65;;;;;;;11.14;100.00;99784.88;2107696;28;20201;-78
2021/10/07 03:27:41;;;;;;;83.50;50.13;;;;;;;11.15;100.00;99775.00;2116263;28;20189;-78
2021/10/07 03:28:44;;;;;;;84.38;51.85;;;;;;;11.14;100.00;99787.56;2115765;28;20192;-78
2021/10/07 03:29:45;;;;;;;88.90;52.53;;;;;;;11.16;100.00;99781.94;2116389;28;20342;-78
2021/10/07 03:30:47;;;;;;;90.50;52.73;;;;;;;11.16;100.00;99788.06;2116178;28;20193;-78
2021/10/07 03:31:48;;;;;;;92.60;51.38;;;;;;;11.17;100.00;99784.31;2116194;28;20193;-78
2021/10/07 03:32:49;;;;;;;85.07;50.40;;;;;;;11.16;100.00;99784.59;2116767;28;20219;-78
2021/10/07 03:33:50;;;;;;;89.85;51.92;;;;;;;11.18;100.00;99791.25;2116096;28;20193;-78
2021/10/07 03:34:54;;;;;;;91.93;51.77;;;;;;;11.17;100.00;99781.66;2107666;28;20232;-77
2021/10/07 03:35:57;;;;;;;94.05;52.22;;;;;;;11.17;100.00;99789.66;2116281;28;20675;-78
2021/10/07 03:36:59;;;;;;;85.47;51.13;;;;;;;11.20;100.00;99788.28;2116094;28;20205;-77
2021/10/07 03:38:01;;;;;;;85.53;52.08;;;;;;;11.18;100.00;99785.91;2116236;28;20708;-78
2021/10/07 03:39:02;;;;;;;85.72;52.08;;;;;;;11.21;100.00;99790.72;2116246;27;20224;-78
2021/10/07 03:40:07;;;;;;;92.00;52.90;;;;;;;11.19;100.00;99781.34;2115983;28;20227;-78
2021/10/07 03:41:09;;;;;;;86.18;51.15;;;;;;;11.21;100.00;99796.03;2116310;28;20175;-78
2021/10/07 03:42:12;;;;;;;88.97;51.50;;;;;;;11.21;100.00;99793.38;2116731;28;20185;-78
2021/10/07 03:43:13;;;;;;;89.53;50.67;;;;;;;11.22;100.00;99791.50;2116789;28;20189;-78
2021/10/07 03:44:15;;;;;;;93.30;53.45;;;;;;;11.22;100.00;99794.16;2116354;27;20312;-78
2021/10/07 03:45:15;;;;;;;96.88;52.90;;;;;;;11.25;100.00;99801.59;2107592;28;20247;-78
2021/10/07 03:46:17;;;;;;;88.40;50.03;;;;;;;11.25;100.00;99793.59;2107867;28;20193;-78
2021/10/07 03:47:18;;;;;;;88.68;50.65;;;;;;;11.25;100.00;99796.25;2116080;28;20727;-78
2021/10/07 03:48:21;;;;;;;95.03;51.60;;;;;;;11.25;100.00;99802.41;2116174;27;20286;-78
2021/10/07 03:49:22;;;;;;;85.97;51.60;;;;;;;11.23;100.00;99796.56;2116196;28;20193;-78
2021/10/07 03:50:24;;;;;;;93.00;51.63;;;;;;;11.24;100.00;99798.16;2116220;27;20193;-78
2021/10/07 03:51:25;;;;;;;92.47;52.47;;;;;;;11.24;100.00;99800.03;2116033;28;20255;-79
2021/10/07 03:52:27;;;;;;;84.73;52.40;;;;;;;11.25;100.00;99801.59;2116714;28;20196;-79
2021/10/07 03:53:28;;;;;;;85.82;52.38;;;;;;;11.24;100.00;99792.81;2115876;28;20441;-79
2021/10/07 03:54:29;;;;;;;86.13;50.47;;;;;;;11.25;100.00;99799.72;2116230;28;20267;-79
2021/10/07 03:55:33;;;;;;;85.80;51.53;;;;;;;11.25;100.00;99796.25;2115867;28;20654;-79
2021/10/07 03:56:37;;;;;;;103.18;52.90;;;;;;;11.22;100.00;99794.97;2107647;28;20206;-78
2021/10/07 03:57:39;;;;;;;94.63;53.42;;;;;;;11.24;100.00;99805.38;2108226;28;20198;-79
2021/10/07 03:58:42;;;;;;;95.20;52.38;;;;;;;11.28;100.00;99806.38;2107682;28;20205;-79
2021/10/07 03:59:43;;;;;;;90.55;51.67;;;;;;;11.31;100.00;99800.50;2107571;28;20204;-79
2021/10/07 04:00:45;;;;;;;89.53;51.83;;;;;;;11.31;100.00;99805.84;2107389;28;20256;-79
2021/10/07 04:01:45;;;;;;;93.82;52.28;;;;;;;11.28;100.00;99806.38;2116015;28;20189;-79
2021/10/07 04:02:47;;;;;;;96.83;51.23;;;;;;;11.30;100.00;99810.38;2115987;28;20285;-79
2021/10/07 04:03:49;;;;;;;100.85;52.60;;;;;;;11.31;100.00;99806.63;2107430;28;20205;-79
2021/10/07 04:04:51;;;;;;;101.28;53.20;;;;;;;11.32;100.00;99815.44;2116278;28;20185;-79
2021/10/07 04:05:53;;;;;;;106.20;53.17;;;;;;;11.28;100.00;99814.38;2116579;28;20181;-79
2021/10/07 04:06:55;;;;;;;92.03;52.55;;;;;;;11.26;100.00;99812.00;2116147;27;20259;-78
2021/10/07 04:07:55;;;;;;;97.65;51.35;;;;;;;11.27;100.00;99815.47;2107404;28;20247;-79
2021/10/07 04:08:57;;;;;;;86.97;50.03;;;;;;;11.26;100.00;99816.56;2115968;28;20189;-79
2021/10/07 04:10:00;;;;;;;88.60;51.35;;;;;;;11.25;100.00;99815.75;2116460;28;20212;-79
2021/10/07 04:11:03;;;;;;;88.10;50.72;;;;;;;11.23;100.00;99817.13;2116124;27;20193;-79
2021/10/07 04:12:05;;;;;;;94.68;51.90;;;;;;;11.24;100.00;99822.19;2107658;28;20209;-79
2021/10/07 04:13:06;;;;;;;98.20;52.40;;;;;;;11.24;100.00;99821.38;2106507;28;20652;-79
2021/10/07 04:14:08;;;;;;;92.60;52.03;;;;;;;11.22;100.00;99823.56;2115955;28;20667;-79
2021/10/07 04:15:09;;;;;;;82.82;50.05;;;;;;;11.24;100.00;99824.84;2116047;28;20200;-79
2021/10/07 04:16:13;;;;;;;101.50;53.50;;;;;;;11.22;100.00;99824.34;2107415;28;20206;-79
2021/10/07 04:17:15;;;;;;;97.95;55.58;;;;;;;11.24;100.00;99824.06;2115987;28;20633;-79
2021/10/07 04:18:17;;;;;;;92.88;55.95;;;;;;;11.23;100.00;99819.81;2115772;28;20255;-79
2021/10/07 04:19:19;;;;;;;105.70;56.92;;;;;;;11.21;100.00;99820.09;2107588;28;20201;-79
2021/10/07 04:20:21;;;;;;;111.68;54.97;;;;;;;11.22;100.00;99826.22;2115835;28;20250;-79
2021/10/07 04:21:23;;;;;;;93.22;54.08;;;;;;;11.20;100.00;99821.13;2116390;28;20250;-79
2021/10/07 04:22:25;;;;;;;95.63;54.47;;;;;;;11.23;100.00;99828.59;2115276;28;20204;-79
2021/10/07 04:23:26;;;;;;;97.68;54.72;;;;;;;11.25;100.00;99823.78;2115839;28;20196;-79
2021/10/07 04:24:30;;;;;;;103.33;52.37;;;;;;;11.24;100.00;99827.53;2115709;28;20204;-79
2021/10/07 04:25:31;;;;;;;95.10;50.78;;;;;;;11.24;100.00;99835.53;2107864;28;20201;-79
2021/10/07 04:26:34;;;;;;;99.60;52.93;;;;;;;11.24;100.00;99832.06;2107212;28;20303;-79
2021/10/07 04:27:35;;;;;;;98.88;52.35;;;;;;;11.24;100.00;99832.88;2107449;28;20557;-79
2021/10/07 04:28:37;;;;;;;100.40;51.40;;;;;;;11.24;100.00;99832.88;2107204;28;20210;-79
2021/10/07 04:29:39;;;;;;;95.97;51.15;;;;;;;11.23;100.00;99833.16;2115949;28;20247;-79
2021/10/07 04:30:40;;;;;;;101.22;51.90;;;;;;;11.27;100.00;99834.16;2115925;27;20197;-79
2021/10/07 04:31:42;;;;;;;101.10;53.55;;;;;;;11.27;100.00;99832.28;2107326;28;20247;-79
2021/10/07 04:32:44;;;;;;;98.88;52.00;;;;;;;11.26;100.00;99835.25;2115648;28;20560;-79
2021/10/07 04:33:44;;;;;;;103.47;54.42;;;;;;;11.28;100.00;99833.09;2115744;28;20189;-79
2021/10/07 04:34:47;;;;;;;106.77;55.70;;;;;;;11.29;100.00;99832.84;2115665;28;20234;-79
2021/10/07 04:35:47;;;;;;;106.90;56.85;;;;;;;11.30;100.00;99826.41;2115699;28;20709;-79
2021/10/07 04:36:49;;;;;;;106.30;53.37;;;;;;;11.31;100.00;99828.00;2115477;28;20645;-79
2021/10/07 04:37:50;;;;;;;89.97;52.45;;;;;;;11.35;100.00;99838.91;2107236;28;20232;-79
2021/10/07 04:38:52;;;;;;;82.87;49.77;;;;;;;11.37;100.00;99835.94;2107433;28;20258;-79
2021/10/07 04:39:53;;;;;;;96.05;52.75;;;;;;;11.36;100.00;99832.47;2107267;28;20209;-79
2021/10/07 04:40:54;;;;;;;88.67;51.57;;;;;;;11.41;100.00;99834.31;2115658;28;20652;-79
2021/10/07 04:41:56;;;;;;;87.40;49.42;;;;;;;11.43;100.00;99834.84;2115552;28;20197;-79
2021/10/07 04:42:59;;;;;;;85.10;49.03;;;;;;;11.47;100.00;99842.00;2107382;28;20684;-79
2021/10/07 04:44:01;;;;;;;82.07;48.78;;;;;;;11.40;100.00;99835.41;2107409;28;20233;-79